createdAt,value
2019-01-31T00:03:00.849Z,3.25
2019-01-31T00:05:47.800Z,2.49
2019-01-31T00:08:46.136Z,3.12
2019-01-31T00:11:43.848Z,2.84
2019-01-31T00:15:05.037Z,2.73
2019-01-31T00:18:15.114Z,2.82
2019-01-31T00:21:40.102Z,2.66
2019-01-31T00:24:35.910Z,3.12
2019-01-31T00:27:51.744Z,3.07
2019-01-31T00:30:31.911Z,3.53
2019-01-31T00:33:16.897Z,3.65
2019-01-31T00:36:37.604Z,3.03
2019-01-31T00:39:39.873Z,2.52
2019-01-31T00:42:44.171Z,3.26
2019-01-31T00:45:37.113Z,3.52
2019-01-31T00:48:20.849Z,3.42
2019-01-31T00:50:54.583Z,2.72
2019-01-31T00:53:57.632Z,3.26
2019-01-31T00:56:44.530Z,3.23
2019-01-31T01:00:06.440Z,2.90
2019-01-31T01:02:45.210Z,3.26
2019-01-31T01:05:47.258Z,3.34
2019-01-31T01:08:26.558Z,3.22
2019-01-31T01:11:39.230Z,3.22
2019-01-31T01:14:29.783Z,3.09
2019-01-31T01:17:12.177Z,3.07
2019-01-31T01:20:06.753Z,3.81
2019-01-31T01:22:43.357Z,3.72
2019-01-31T01:25:55.177Z,2.99
2019-01-31T01:28:44.540Z,3.11
2019-01-31T01:32:00.042Z,3.18
2019-01-31T01:34:49.365Z,2.58
2019-01-31T01:37:57.873Z,3.14
2019-01-31T01:40:56.818Z,2.70
2019-01-31T01:43:50.239Z,2.74
2019-01-31T01:46:59.894Z,2.29
2019-01-31T01:50:05.050Z,2.44
2019-01-31T01:53:12.246Z,2.79
2019-01-31T01:56:30.807Z,2.83
2019-01-31T01:59:11.562Z,2.92
2019-01-31T02:01:50.930Z,2.93
2019-01-31T02:04:41.774Z,3.07
2019-01-31T02:07:57.980Z,2.70
2019-01-31T02:10:41.012Z,3.31
2019-01-31T02:13:49.877Z,3.60
2019-01-31T02:16:42.753Z,3.41
2019-01-31T02:19:34.529Z,3.25
2019-01-31T02:22:49.091Z,3.12
2019-01-31T02:25:54.706Z,2.86
2019-01-31T02:28:33.655Z,3.53
2019-01-31T02:31:32.025Z,3.23
2019-01-31T02:34:38.170Z,3.06
2019-01-31T02:37:40.959Z,2.63
2019-01-31T02:40:46.035Z,3.23
2019-01-31T02:43:45.754Z,2.70
2019-01-31T02:46:33.758Z,3.36
2019-01-31T02:49:36.998Z,4.04
2019-01-31T02:52:33.393Z,3.77
2019-01-31T02:55:27.851Z,4.49
2019-01-31T02:58:30.367Z,3.87
2019-01-31T03:01:38.708Z,3.17
2019-01-31T03:05:04.225Z,2.90
2019-01-31T03:08:16.934Z,2.21
2019-01-31T03:10:56.853Z,2.16
2019-01-31T03:13:48.420Z,2.55
2019-01-31T03:16:42.961Z,2.97
2019-01-31T03:19:50.079Z,2.86
2019-01-31T03:22:32.793Z,3.21
2019-01-31T03:25:27.004Z,2.87
2019-01-31T03:28:36.810Z,2.09
2019-01-31T03:31:29.833Z,2.43
2019-01-31T03:34:24.152Z,1.99
2019-01-31T03:37:27.559Z,1.79
2019-01-31T03:40:27.760Z,2.42
2019-01-31T03:43:35.880Z,2.61
2019-01-31T03:46:14.337Z,2.63
2019-01-31T03:48:54.968Z,3.01
2019-01-31T03:52:00.228Z,2.82
2019-01-31T03:54:37.168Z,3.09
2019-01-31T03:57:39.144Z,3.30
2019-01-31T04:00:52.185Z,3.44
2019-01-31T04:03:45.896Z,3.17
2019-01-31T04:06:21.982Z,3.21
2019-01-31T04:08:50.554Z,2.88
2019-01-31T04:11:19.110Z,2.50
2019-01-31T04:13:47.695Z,1.90
2019-01-31T04:16:16.259Z,1.25
2019-01-31T04:18:44.844Z,1.55
2019-01-31T04:21:13.676Z,1.21
2019-01-31T04:23:42.235Z,0.97
2019-01-31T04:26:10.810Z,0.93
2019-01-31T04:28:39.458Z,0.87
2019-01-31T04:31:08.116Z,1.12
2019-01-31T04:33:36.691Z,0.99
2019-01-31T04:36:05.367Z,0.87
2019-01-31T04:38:33.945Z,0.45
2019-01-31T04:41:02.525Z,0.65
2019-01-31T04:43:31.088Z,0.30
2019-01-31T04:45:59.772Z,0.53
2019-01-31T04:48:28.333Z,0.41
2019-01-31T04:50:57.148Z,0.39
2019-01-31T04:53:25.704Z,0.08
2019-01-31T04:55:54.295Z,-0.06
2019-01-31T04:58:22.851Z,0.06
2019-01-31T05:00:51.418Z,-0.09
2019-01-31T05:03:20.072Z,0.30
2019-01-31T05:05:48.742Z,0.43
2019-01-31T05:08:17.626Z,0.34
2019-01-31T05:10:46.223Z,0.25
2019-01-31T05:13:14.850Z,0.46
2019-01-31T05:15:43.509Z,0.37
2019-01-31T05:18:12.224Z,0.24
2019-01-31T05:20:40.874Z,0.06
2019-01-31T05:23:09.509Z,-0.13
2019-01-31T05:25:38.220Z,-0.13
2019-01-31T05:28:06.934Z,-0.38
2019-01-31T05:30:35.776Z,-0.37
2019-01-31T05:33:04.506Z,-0.04
2019-01-31T05:35:33.212Z,-0.58
2019-01-31T05:38:01.820Z,-0.58
2019-01-31T05:40:30.728Z,-0.33
2019-01-31T05:42:59.374Z,-0.21
2019-01-31T05:45:28.102Z,-0.08
2019-01-31T05:47:56.843Z,-0.01
2019-01-31T05:50:25.489Z,-0.01
2019-01-31T05:52:54.149Z,-0.19
2019-01-31T05:55:22.871Z,-0.18
2019-01-31T05:57:51.527Z,-0.34
2019-01-31T06:00:26.631Z,-0.62
2019-01-31T06:02:55.234Z,-0.25
2019-01-31T06:05:23.903Z,-0.55
2019-01-31T06:07:52.651Z,-0.97
2019-01-31T06:10:21.314Z,-0.39
2019-01-31T06:12:49.977Z,-0.70
2019-01-31T06:15:18.866Z,-0.45
2019-01-31T06:17:47.392Z,-0.55
2019-01-31T06:20:19.048Z,-0.39
2019-01-31T06:22:47.651Z,-0.61
2019-01-31T06:25:16.247Z,-0.22
2019-01-31T06:27:44.861Z,-0.60
2019-01-31T06:30:14.854Z,-0.16
2019-01-31T06:32:43.434Z,-0.31
2019-01-31T06:35:12.213Z,-0.04
2019-01-31T06:37:40.898Z,-0.09
2019-01-31T06:40:12.029Z,-0.20
2019-01-31T06:42:40.699Z,-0.29
2019-01-31T06:45:11.991Z,0.14
2019-01-31T06:47:40.675Z,0.20
2019-01-31T06:50:09.425Z,0.07
2019-01-31T06:52:38.042Z,0.15
2019-01-31T06:55:06.912Z,0.37
2019-01-31T06:57:35.515Z,0.21
2019-01-31T07:00:05.914Z,0.15
2019-01-31T07:02:34.574Z,-0.18
2019-01-31T07:05:03.219Z,-0.21
2019-01-31T07:07:32.835Z,-0.25
2019-01-31T07:10:01.405Z,-0.46
2019-01-31T07:12:30.105Z,-0.30
2019-01-31T07:14:58.631Z,-0.25
2019-01-31T07:17:27.203Z,-0.01
2019-01-31T07:19:56.622Z,-0.23
2019-01-31T07:22:25.398Z,-0.28
2019-01-31T07:24:54.215Z,-0.17
2019-01-31T07:27:22.781Z,-0.34
2019-01-31T07:29:51.379Z,-0.07
2019-01-31T07:32:20.324Z,0.20
2019-01-31T07:34:48.907Z,0.46
2019-01-31T07:37:17.505Z,0.31
2019-01-31T07:39:46.080Z,0.54
2019-01-31T07:42:14.902Z,0.55
2019-01-31T07:44:43.527Z,1.11
2019-01-31T07:47:12.111Z,1.16
2019-01-31T07:49:40.688Z,1.22
2019-01-31T07:52:09.518Z,1.29
2019-01-31T07:54:38.114Z,1.83
2019-01-31T07:57:06.749Z,2.21
2019-01-31T07:59:35.335Z,1.28
2019-01-31T08:02:03.923Z,1.23
2019-01-31T08:04:32.503Z,2.21
2019-01-31T08:07:01.155Z,2.71
2019-01-31T08:09:29.968Z,2.41
2019-01-31T08:11:58.567Z,2.40
2019-01-31T08:14:27.133Z,2.34
2019-01-31T08:16:55.921Z,2.05
2019-01-31T08:19:24.493Z,2.31
2019-01-31T08:21:53.063Z,2.11
2019-01-31T08:24:21.693Z,2.80
2019-01-31T08:26:50.257Z,2.64
2019-01-31T08:29:18.837Z,2.42
2019-01-31T08:31:47.787Z,2.44
2019-01-31T08:34:16.370Z,2.73
2019-01-31T08:36:44.938Z,2.11
2019-01-31T08:39:13.513Z,1.33
2019-01-31T08:41:42.080Z,1.80
2019-01-31T08:44:10.668Z,1.97
2019-01-31T08:46:39.241Z,2.67
2019-01-31T08:49:07.816Z,2.84
2019-01-31T08:51:36.391Z,2.58
2019-01-31T08:54:05.255Z,2.44
2019-01-31T08:56:33.827Z,2.75
2019-01-31T08:59:02.397Z,3.59
2019-01-31T09:01:30.973Z,2.73
2019-01-31T09:03:59.621Z,3.01
2019-01-31T09:06:28.163Z,3.61
2019-01-31T09:08:56.973Z,3.19
2019-01-31T09:11:25.557Z,3.51
2019-01-31T09:13:54.139Z,3.69
2019-01-31T09:16:22.964Z,4.00
2019-01-31T09:18:51.539Z,2.78
2019-01-31T09:21:48.517Z,3.66
2019-01-31T09:24:36.166Z,3.98
2019-01-31T09:27:27.987Z,3.85
2019-01-31T09:30:20.619Z,3.64
2019-01-31T09:33:31.094Z,3.82
2019-01-31T09:36:12.333Z,4.55
2019-01-31T09:39:11.312Z,4.65
2019-01-31T09:42:06.850Z,4.47
2019-01-31T09:44:58.682Z,3.99
2019-01-31T09:47:58.557Z,3.97
2019-01-31T09:51:02.673Z,4.98
2019-01-31T09:54:21.707Z,4.32
2019-01-31T09:57:21.981Z,3.74
2019-01-31T10:00:27.275Z,3.93
2019-01-31T10:06:32.272Z,4.51
2019-01-31T10:09:39.045Z,4.18
2019-01-31T10:12:25.263Z,3.94
2019-01-31T10:15:07.018Z,3.63
2019-01-31T10:18:26.515Z,4.67
2019-01-31T10:21:17.175Z,5.41
2019-01-31T10:24:22.897Z,5.08
2019-01-31T10:27:10.785Z,4.48
2019-01-31T10:30:05.331Z,4.99
2019-01-31T10:32:59.960Z,5.58
2019-01-31T10:36:05.931Z,5.28
2019-01-31T10:38:46.744Z,4.75
2019-01-31T10:41:43.836Z,4.84
2019-01-31T10:44:37.683Z,4.33
2019-01-31T10:47:49.454Z,4.08
2019-01-31T10:50:50.691Z,4.66
2019-01-31T10:53:51.174Z,4.99
2019-01-31T10:57:04.599Z,4.93
2019-01-31T10:59:50.257Z,4.42
2019-01-31T11:03:15.135Z,4.79
2019-01-31T11:06:16.630Z,5.00
2019-01-31T11:09:27.212Z,5.51
2019-01-31T11:12:28.256Z,5.11
2019-01-31T11:15:44.280Z,5.93
2019-01-31T11:18:48.782Z,5.61
2019-01-31T11:22:13.429Z,5.31
2019-01-31T11:25:21.758Z,5.76
2019-01-31T11:28:18.067Z,5.43
2019-01-31T11:31:34.044Z,4.71
2019-01-31T11:34:38.527Z,5.19
2019-01-31T11:37:47.716Z,5.52
2019-01-31T11:41:03.491Z,5.13
2019-01-31T11:44:08.843Z,4.96
2019-01-31T11:46:52.000Z,5.00
2019-01-31T11:49:50.004Z,4.55
2019-01-31T11:53:01.074Z,4.67
2019-01-31T11:55:51.978Z,5.33
2019-01-31T11:58:53.918Z,5.65
2019-01-31T12:01:22.523Z,5.78
2019-01-31T12:03:54.039Z,5.32
2019-01-31T12:06:22.624Z,5.72
2019-01-31T12:08:51.191Z,5.36
2019-01-31T12:11:19.760Z,5.89
2019-01-31T12:13:48.367Z,5.81
2019-01-31T12:16:17.116Z,5.76
2019-01-31T12:18:45.719Z,5.79
2019-01-31T12:21:14.608Z,5.29
2019-01-31T12:23:44.833Z,4.71
2019-01-31T12:26:14.005Z,5.38
2019-01-31T12:28:43.812Z,5.33
2019-01-31T12:31:12.733Z,4.71
2019-01-31T12:33:41.485Z,4.39
2019-01-31T12:36:10.069Z,4.75
2019-01-31T12:38:38.633Z,4.25
2019-01-31T12:41:07.373Z,5.16
2019-01-31T12:43:35.925Z,4.28
2019-01-31T12:46:04.660Z,4.56
2019-01-31T12:48:33.257Z,4.05
2019-01-31T12:51:01.852Z,4.47
2019-01-31T12:53:30.423Z,4.24
2019-01-31T12:55:59.014Z,4.02
2019-01-31T12:58:33.803Z,4.78
2019-01-31T13:00:58.223Z,4.75
2019-01-31T13:03:26.757Z,4.28
2019-01-31T13:05:55.345Z,4.34
2019-01-31T13:08:23.911Z,4.22
2019-01-31T13:10:52.492Z,4.17
2019-01-31T13:13:21.370Z,3.79
2019-01-31T13:15:50.103Z,4.02
2019-01-31T13:18:18.629Z,4.72
2019-01-31T13:20:47.209Z,3.98
2019-01-31T13:23:15.850Z,3.67
2019-01-31T13:25:44.528Z,3.62
2019-01-31T13:28:13.087Z,4.39
2019-01-31T13:30:41.658Z,4.09
2019-01-31T13:33:10.323Z,3.74
2019-01-31T13:35:39.222Z,4.39
2019-01-31T13:38:07.816Z,3.81
2019-01-31T13:40:36.451Z,4.13
2019-01-31T13:43:05.217Z,4.55
2019-01-31T13:45:36.047Z,4.13
2019-01-31T13:48:10.986Z,4.60
2019-01-31T13:50:39.616Z,5.40
2019-01-31T13:53:08.933Z,4.42
2019-01-31T13:55:37.609Z,4.77
2019-01-31T13:58:06.384Z,4.16
2019-01-31T14:00:34.966Z,3.82
2019-01-31T14:03:03.565Z,4.19
2019-01-31T14:05:32.207Z,3.91
2019-01-31T14:08:00.877Z,4.15
2019-01-31T14:10:29.579Z,4.27
2019-01-31T14:12:58.110Z,3.80
2019-01-31T14:15:33.637Z,3.81
2019-01-31T14:17:59.724Z,4.14
2019-01-31T14:20:28.728Z,3.87
2019-01-31T14:22:57.285Z,3.02
2019-01-31T14:25:26.103Z,3.79
2019-01-31T14:27:54.758Z,3.33
2019-01-31T14:30:34.782Z,4.39
2019-01-31T14:33:03.885Z,3.35
2019-01-31T14:35:32.669Z,3.06
2019-01-31T14:38:01.225Z,3.02
2019-01-31T14:40:29.898Z,3.32
2019-01-31T14:42:58.533Z,2.90
2019-01-31T14:45:30.024Z,3.14
2019-01-31T14:47:57.509Z,2.98
2019-01-31T14:50:28.737Z,3.49
2019-01-31T14:52:57.561Z,2.60
2019-01-31T14:55:26.234Z,3.28
2019-01-31T14:57:54.933Z,3.48
2019-01-31T15:00:25.343Z,3.11
2019-01-31T15:02:54.156Z,3.10
2019-01-31T15:05:22.737Z,2.57
2019-01-31T15:07:51.387Z,2.37
2019-01-31T15:10:22.345Z,3.33
2019-01-31T15:12:50.981Z,2.52
2019-01-31T15:15:19.608Z,3.08
2019-01-31T15:17:48.248Z,2.78
2019-01-31T15:20:34.474Z,3.25
2019-01-31T15:22:53.038Z,3.26
2019-01-31T15:25:21.693Z,3.10
2019-01-31T15:27:50.270Z,3.15
2019-01-31T15:30:24.477Z,3.08
2019-01-31T15:32:54.653Z,3.94
2019-01-31T15:35:23.224Z,4.28
2019-01-31T15:37:52.137Z,4.03
2019-01-31T15:40:27.599Z,3.70
2019-01-31T15:42:56.168Z,3.52
2019-01-31T15:45:24.822Z,4.01
2019-01-31T15:47:53.400Z,4.43
2019-01-31T15:50:22.941Z,3.34
2019-01-31T15:52:51.570Z,4.16
2019-01-31T15:55:20.740Z,3.94
2019-01-31T15:57:49.369Z,4.52
2019-01-31T16:00:24.995Z,3.77
2019-01-31T16:02:53.569Z,3.64
2019-01-31T16:05:22.225Z,3.96
2019-01-31T16:07:50.954Z,3.93
2019-01-31T16:10:19.645Z,3.87
2019-01-31T16:12:48.268Z,4.31
2019-01-31T16:15:16.987Z,4.32
2019-01-31T16:17:45.598Z,3.93
2019-01-31T16:20:14.267Z,4.11
2019-01-31T16:22:43.011Z,3.84
2019-01-31T16:25:11.714Z,4.18
2019-01-31T16:27:40.374Z,4.21
2019-01-31T16:30:10.920Z,3.99
2019-01-31T16:32:39.623Z,2.93
2019-01-31T16:35:10.313Z,3.18
2019-01-31T16:37:38.950Z,3.58
2019-01-31T16:40:10.350Z,3.92
2019-01-31T16:42:39.018Z,3.28
2019-01-31T16:45:09.545Z,3.93
2019-01-31T16:47:38.488Z,4.01
2019-01-31T16:50:10.407Z,4.25
2019-01-31T16:52:39.321Z,3.49
2019-01-31T16:55:09.524Z,4.04
2019-01-31T16:57:38.194Z,3.50
2019-01-31T17:00:09.120Z,4.18
2019-01-31T17:02:37.807Z,3.65
2019-01-31T17:05:08.687Z,3.62
2019-01-31T17:07:37.347Z,3.89
2019-01-31T17:10:06.544Z,4.12
2019-01-31T17:12:35.879Z,3.79
2019-01-31T17:15:05.496Z,3.92
2019-01-31T17:17:34.184Z,3.88
2019-01-31T17:20:03.073Z,4.29
2019-01-31T17:22:31.672Z,4.08
2019-01-31T17:25:00.355Z,4.02
2019-01-31T17:27:28.889Z,3.88
2019-01-31T17:29:57.519Z,4.07
2019-01-31T17:32:26.248Z,3.33
2019-01-31T17:34:54.932Z,3.69
2019-01-31T17:37:23.902Z,4.00
2019-01-31T17:39:52.966Z,2.89
2019-01-31T17:42:21.907Z,3.38
2019-01-31T17:44:53.252Z,3.11
2019-01-31T17:47:22.050Z,3.21
2019-01-31T17:49:51.517Z,3.52
2019-01-31T17:52:20.069Z,3.35
2019-01-31T17:54:48.814Z,3.12
2019-01-31T17:57:17.392Z,3.02
2019-01-31T17:59:45.973Z,2.82
2019-01-31T18:02:14.831Z,3.18
2019-01-31T18:04:43.490Z,3.64
2019-01-31T18:07:12.280Z,3.20
2019-01-31T18:09:40.956Z,3.99
2019-01-31T18:12:09.508Z,2.87
2019-01-31T18:14:38.089Z,3.09
2019-01-31T18:17:06.834Z,2.90
2019-01-31T18:19:35.814Z,3.77
2019-01-31T18:22:04.711Z,4.18
2019-01-31T18:24:33.351Z,4.12
2019-01-31T18:27:03.584Z,3.51
2019-01-31T18:29:32.192Z,3.52
2019-01-31T18:32:00.767Z,3.58
2019-01-31T18:34:29.642Z,2.85
2019-01-31T18:36:58.330Z,2.89
2019-01-31T18:39:27.039Z,3.19
2019-01-31T18:41:55.594Z,3.39
2019-01-31T18:44:24.266Z,2.96
2019-01-31T18:46:52.831Z,2.85
2019-01-31T18:49:21.405Z,2.71
2019-01-31T18:51:49.999Z,3.28
2019-01-31T18:54:24.472Z,3.48
2019-01-31T18:56:53.030Z,3.19
2019-01-31T18:59:21.939Z,2.87
2019-01-31T19:01:50.597Z,3.00
2019-01-31T19:04:19.210Z,2.41
2019-01-31T19:06:47.769Z,3.13
2019-01-31T19:09:16.357Z,2.88
2019-01-31T19:11:44.942Z,2.67
2019-01-31T19:14:14.497Z,3.14
2019-01-31T19:16:43.155Z,2.73
2019-01-31T19:19:11.738Z,3.41
2019-01-31T19:21:40.420Z,2.47
2019-01-31T19:24:09.046Z,2.86
2019-01-31T19:26:37.797Z,3.48
2019-01-31T19:29:06.449Z,3.06
2019-01-31T19:31:35.158Z,3.39
2019-01-31T19:34:03.763Z,3.13
2019-01-31T19:36:32.347Z,2.32
2019-01-31T19:39:00.913Z,2.70
2019-01-31T19:41:29.609Z,2.28
2019-01-31T19:43:58.169Z,2.43
2019-01-31T19:46:26.761Z,2.38
2019-01-31T19:48:55.348Z,2.09
2019-01-31T19:51:24.083Z,2.73
2019-01-31T19:53:53.721Z,2.15
2019-01-31T19:56:22.316Z,1.89
2019-01-31T19:58:50.964Z,2.05
2019-01-31T20:01:19.706Z,2.26
2019-01-31T20:03:48.532Z,2.32
2019-01-31T20:06:17.212Z,1.66
2019-01-31T20:08:45.855Z,1.78
2019-01-31T20:11:14.514Z,1.87
2019-01-31T20:13:43.932Z,1.74
2019-01-31T20:16:12.619Z,2.05
2019-01-31T20:18:41.195Z,1.77
2019-01-31T20:21:09.849Z,2.63
2019-01-31T20:23:38.424Z,2.27
2019-01-31T20:26:07.057Z,2.04
2019-01-31T20:28:35.655Z,1.68
2019-01-31T20:31:04.490Z,2.41
2019-01-31T20:33:33.067Z,2.87
2019-01-31T20:36:01.641Z,1.79
2019-01-31T20:38:30.229Z,1.89
2019-01-31T20:40:58.802Z,1.91
2019-01-31T20:43:27.396Z,2.42
2019-01-31T20:45:55.958Z,2.99
2019-01-31T20:48:24.595Z,2.44
2019-01-31T20:50:53.160Z,2.04
2019-01-31T20:53:21.750Z,1.81
2019-01-31T20:55:50.433Z,1.56
2019-01-31T20:58:19.023Z,1.57
2019-01-31T21:00:48.149Z,1.57
2019-01-31T21:03:16.803Z,2.20
2019-01-31T21:05:45.461Z,2.89
2019-01-31T21:08:14.762Z,3.02
2019-01-31T21:10:43.452Z,2.42
2019-01-31T21:13:12.393Z,2.57
2019-01-31T21:15:40.977Z,2.28
2019-01-31T21:18:09.625Z,1.82
2019-01-31T21:20:38.282Z,2.28
2019-01-31T21:23:07.593Z,1.42
2019-01-31T21:25:36.398Z,2.66
2019-01-31T21:28:05.543Z,2.29
2019-01-31T21:30:36.922Z,2.23
2019-01-31T21:33:06.217Z,2.28
2019-01-31T21:35:34.941Z,2.74
2019-01-31T21:38:03.653Z,2.75
2019-01-31T21:40:34.150Z,2.12
2019-01-31T21:43:03.289Z,2.01
2019-01-31T21:45:31.988Z,3.13
2019-01-31T21:48:00.542Z,2.97
2019-01-31T21:50:29.227Z,2.44
2019-01-31T21:52:58.109Z,2.77
2019-01-31T21:55:26.848Z,2.57
2019-01-31T21:57:55.745Z,1.70
2019-01-31T22:00:26.557Z,2.24
2019-01-31T22:02:55.288Z,2.56
2019-01-31T22:05:23.964Z,1.44
2019-01-31T22:07:52.602Z,0.88
2019-01-31T22:10:21.927Z,1.77
2019-01-31T22:12:50.690Z,1.31
2019-01-31T22:15:24.514Z,1.76
2019-01-31T22:17:53.236Z,1.11
2019-01-31T22:20:21.755Z,1.09
2019-01-31T22:22:50.388Z,1.54
2019-01-31T22:25:20.242Z,1.96
2019-01-31T22:27:48.819Z,1.94
2019-01-31T22:30:19.862Z,1.68
2019-01-31T22:32:48.499Z,1.16
2019-01-31T22:35:17.171Z,0.44
2019-01-31T22:37:45.735Z,0.92
2019-01-31T22:40:14.623Z,1.54
2019-01-31T22:42:43.253Z,1.83
2019-01-31T22:45:14.177Z,1.71
2019-01-31T22:47:42.743Z,1.51
2019-01-31T22:50:13.015Z,1.82
2019-01-31T22:52:41.573Z,1.13
2019-01-31T22:55:12.399Z,1.82
2019-01-31T22:57:40.972Z,1.51
2019-01-31T23:00:53.165Z,1.00
2019-01-31T23:03:21.723Z,1.27
2019-01-31T23:05:50.402Z,1.30
2019-01-31T23:08:18.994Z,0.94
2019-01-31T23:10:47.668Z,1.42
2019-01-31T23:13:16.247Z,0.91
2019-01-31T23:15:44.907Z,1.77
2019-01-31T23:18:13.490Z,0.19
2019-01-31T23:20:44.340Z,0.57
2019-01-31T23:23:12.531Z,0.48
2019-01-31T23:25:41.104Z,0.51
2019-01-31T23:28:09.934Z,1.01
2019-01-31T23:30:38.543Z,1.25
2019-01-31T23:33:07.191Z,1.04
2019-01-31T23:38:06.512Z,0.65
2019-01-31T23:40:35.101Z,1.09
2019-01-31T23:43:03.860Z,1.55
2019-01-31T23:48:20.173Z,1.23
2019-01-31T23:50:48.772Z,0.98
2019-01-31T23:53:17.394Z,1.09
2019-01-31T23:55:45.968Z,0.62
2019-01-31T23:58:15.841Z,0.84
